sensor_id;sensor_type;location;lat;lon;timestamp;P1;durP1;ratioP1;P2;durP2;ratioP2
80584;SDS011;70137;56.482;9.154;2024-01-16T00:00:31;5.55;;;1.50;;
80584;SDS011;70137;56.482;9.154;2024-01-16T00:02:56;7.57;;;1.40;;
80584;SDS011;70137;56.482;9.154;2024-01-16T00:05:22;4.82;;;1.85;;
80584;SDS011;70137;56.482;9.154;2024-01-16T00:07:47;4.03;;;1.45;;
80584;SDS011;70137;56.482;9.154;2024-01-16T00:10:12;5.63;;;1.75;;
80584;SDS011;70137;56.482;9.154;2024-01-16T00:12:38;3.60;;;1.13;;
80584;SDS011;70137;56.482;9.154;2024-01-16T00:15:05;5.00;;;1.30;;
80584;SDS011;70137;56.482;9.154;2024-01-16T00:17:31;2.17;;;1.10;;
80584;SDS011;70137;56.482;9.154;2024-01-16T00:19:56;6.78;;;1.35;;
80584;SDS011;70137;56.482;9.154;2024-01-16T00:22:25;5.30;;;1.10;;
80584;SDS011;70137;56.482;9.154;2024-01-16T00:24:51;2.90;;;1.25;;
80584;SDS011;70137;56.482;9.154;2024-01-16T00:27:16;5.95;;;1.63;;
80584;SDS011;70137;56.482;9.154;2024-01-16T00:29:42;7.32;;;1.70;;
80584;SDS011;70137;56.482;9.154;2024-01-16T00:32:07;5.78;;;1.60;;
80584;SDS011;70137;56.482;9.154;2024-01-16T00:34:33;7.38;;;1.70;;
80584;SDS011;70137;56.482;9.154;2024-01-16T00:36:59;7.07;;;1.48;;
80584;SDS011;70137;56.482;9.154;2024-01-16T00:39:24;4.88;;;1.35;;
80584;SDS011;70137;56.482;9.154;2024-01-16T00:41:49;2.90;;;1.30;;
80584;SDS011;70137;56.482;9.154;2024-01-16T00:44:15;2.63;;;1.25;;
80584;SDS011;70137;56.482;9.154;2024-01-16T00:46:40;10.88;;;2.08;;
80584;SDS011;70137;56.482;9.154;2024-01-16T00:49:05;6.40;;;1.40;;
80584;SDS011;70137;56.482;9.154;2024-01-16T00:51:32;4.22;;;1.00;;
80584;SDS011;70137;56.482;9.154;2024-01-16T00:53:58;4.90;;;1.10;;
80584;SDS011;70137;56.482;9.154;2024-01-16T00:56:23;5.70;;;1.35;;
80584;SDS011;70137;56.482;9.154;2024-01-16T00:58:48;7.32;;;2.22;;
80584;SDS011;70137;56.482;9.154;2024-01-16T01:01:14;1.90;;;1.27;;
80584;SDS011;70137;56.482;9.154;2024-01-16T01:03:39;4.13;;;1.75;;
80584;SDS011;70137;56.482;9.154;2024-01-16T01:06:04;4.45;;;1.50;;
80584;SDS011;70137;56.482;9.154;2024-01-16T01:08:30;2.85;;;1.30;;
80584;SDS011;70137;56.482;9.154;2024-01-16T01:10:55;2.22;;;1.85;;
80584;SDS011;70137;56.482;9.154;2024-01-16T01:13:21;5.38;;;1.40;;
80584;SDS011;70137;56.482;9.154;2024-01-16T01:15:46;3.47;;;1.60;;
80584;SDS011;70137;56.482;9.154;2024-01-16T01:18:11;5.10;;;1.58;;
80584;SDS011;70137;56.482;9.154;2024-01-16T01:20:37;6.60;;;1.50;;
80584;SDS011;70137;56.482;9.154;2024-01-16T01:23:02;5.00;;;2.05;;
80584;SDS011;70137;56.482;9.154;2024-01-16T01:25:28;4.50;;;1.77;;
80584;SDS011;70137;56.482;9.154;2024-01-16T01:27:53;3.58;;;1.38;;
80584;SDS011;70137;56.482;9.154;2024-01-16T01:30:18;6.13;;;1.33;;
80584;SDS011;70137;56.482;9.154;2024-01-16T01:32:44;4.40;;;1.35;;
80584;SDS011;70137;56.482;9.154;2024-01-16T01:35:09;2.83;;;1.25;;
80584;SDS011;70137;56.482;9.154;2024-01-16T01:37:36;4.13;;;1.77;;
80584;SDS011;70137;56.482;9.154;2024-01-16T01:40:01;3.63;;;1.65;;
80584;SDS011;70137;56.482;9.154;2024-01-16T01:42:27;5.65;;;1.48;;
80584;SDS011;70137;56.482;9.154;2024-01-16T01:44:53;9.93;;;1.67;;
80584;SDS011;70137;56.482;9.154;2024-01-16T01:47:18;9.68;;;1.70;;
80584;SDS011;70137;56.482;9.154;2024-01-16T01:49:44;7.45;;;1.75;;
80584;SDS011;70137;56.482;9.154;2024-01-16T01:52:10;3.92;;;1.58;;
80584;SDS011;70137;56.482;9.154;2024-01-16T01:54:36;3.28;;;1.42;;
80584;SDS011;70137;56.482;9.154;2024-01-16T01:57:03;7.47;;;1.65;;
80584;SDS011;70137;56.482;9.154;2024-01-16T01:59:32;4.50;;;1.35;;
80584;SDS011;70137;56.482;9.154;2024-01-16T02:01:57;3.63;;;1.40;;
80584;SDS011;70137;56.482;9.154;2024-01-16T02:04:24;5.22;;;1.27;;
80584;SDS011;70137;56.482;9.154;2024-01-16T02:06:49;8.23;;;1.45;;
80584;SDS011;70137;56.482;9.154;2024-01-16T02:09:15;3.85;;;1.20;;
80584;SDS011;70137;56.482;9.154;2024-01-16T02:11:41;5.40;;;1.40;;
80584;SDS011;70137;56.482;9.154;2024-01-16T02:14:09;4.40;;;1.40;;
80584;SDS011;70137;56.482;9.154;2024-01-16T02:16:36;4.50;;;1.55;;
80584;SDS011;70137;56.482;9.154;2024-01-16T02:19:05;5.65;;;1.20;;
80584;SDS011;70137;56.482;9.154;2024-01-16T02:21:54;7.35;;;1.48;;
80584;SDS011;70137;56.482;9.154;2024-01-16T02:24:19;2.78;;;1.42;;
80584;SDS011;70137;56.482;9.154;2024-01-16T02:26:45;5.53;;;2.03;;
80584;SDS011;70137;56.482;9.154;2024-01-16T02:29:10;3.15;;;1.90;;
80584;SDS011;70137;56.482;9.154;2024-01-16T02:31:36;4.78;;;1.55;;
80584;SDS011;70137;56.482;9.154;2024-01-16T02:34:01;7.28;;;2.55;;
80584;SDS011;70137;56.482;9.154;2024-01-16T02:36:29;4.28;;;2.45;;
80584;SDS011;70137;56.482;9.154;2024-01-16T02:38:54;5.90;;;1.70;;
80584;SDS011;70137;56.482;9.154;2024-01-16T02:41:20;9.60;;;2.20;;
80584;SDS011;70137;56.482;9.154;2024-01-16T02:43:46;10.00;;;2.22;;
80584;SDS011;70137;56.482;9.154;2024-01-16T02:46:11;7.90;;;2.15;;
80584;SDS011;70137;56.482;9.154;2024-01-16T02:48:37;9.45;;;2.55;;
80584;SDS011;70137;56.482;9.154;2024-01-16T02:51:03;5.97;;;2.35;;
80584;SDS011;70137;56.482;9.154;2024-01-16T02:53:32;10.10;;;2.83;;
80584;SDS011;70137;56.482;9.154;2024-01-16T02:55:57;8.73;;;3.05;;
80584;SDS011;70137;56.482;9.154;2024-01-16T02:58:28;5.78;;;2.50;;
80584;SDS011;70137;56.482;9.154;2024-01-16T03:00:55;6.15;;;2.63;;
80584;SDS011;70137;56.482;9.154;2024-01-16T03:03:22;5.45;;;2.83;;
80584;SDS011;70137;56.482;9.154;2024-01-16T03:05:47;10.32;;;2.92;;
80584;SDS011;70137;56.482;9.154;2024-01-16T03:08:13;6.70;;;2.90;;
80584;SDS011;70137;56.482;9.154;2024-01-16T03:10:38;5.25;;;2.60;;
80584;SDS011;70137;56.482;9.154;2024-01-16T03:13:04;7.45;;;2.70;;
80584;SDS011;70137;56.482;9.154;2024-01-16T03:15:29;11.25;;;3.58;;
80584;SDS011;70137;56.482;9.154;2024-01-16T03:17:56;9.25;;;3.50;;
80584;SDS011;70137;56.482;9.154;2024-01-16T03:20:22;10.13;;;3.67;;
80584;SDS011;70137;56.482;9.154;2024-01-16T03:22:48;6.25;;;2.67;;
80584;SDS011;70137;56.482;9.154;2024-01-16T03:25:13;15.43;;;4.03;;
80584;SDS011;70137;56.482;9.154;2024-01-16T03:27:39;13.18;;;4.00;;
80584;SDS011;70137;56.482;9.154;2024-01-16T03:30:05;9.63;;;3.97;;
80584;SDS011;70137;56.482;9.154;2024-01-16T03:32:31;8.88;;;3.00;;
80584;SDS011;70137;56.482;9.154;2024-01-16T03:34:56;7.38;;;3.20;;
80584;SDS011;70137;56.482;9.154;2024-01-16T03:37:22;6.00;;;3.10;;
80584;SDS011;70137;56.482;9.154;2024-01-16T03:39:47;8.98;;;3.42;;
80584;SDS011;70137;56.482;9.154;2024-01-16T03:42:15;9.23;;;3.53;;
80584;SDS011;70137;56.482;9.154;2024-01-16T03:44:40;8.55;;;3.40;;
80584;SDS011;70137;56.482;9.154;2024-01-16T03:47:06;14.05;;;4.20;;
80584;SDS011;70137;56.482;9.154;2024-01-16T03:49:31;9.35;;;3.65;;
80584;SDS011;70137;56.482;9.154;2024-01-16T03:51:57;10.40;;;3.80;;
80584;SDS011;70137;56.482;9.154;2024-01-16T03:54:22;11.00;;;3.38;;
80584;SDS011;70137;56.482;9.154;2024-01-16T03:56:47;12.15;;;3.67;;
80584;SDS011;70137;56.482;9.154;2024-01-16T03:59:13;10.05;;;3.33;;
80584;SDS011;70137;56.482;9.154;2024-01-16T04:01:38;7.38;;;3.17;;
80584;SDS011;70137;56.482;9.154;2024-01-16T04:04:04;9.02;;;3.33;;
80584;SDS011;70137;56.482;9.154;2024-01-16T04:06:32;10.27;;;3.70;;
80584;SDS011;70137;56.482;9.154;2024-01-16T04:08:57;11.18;;;4.47;;
80584;SDS011;70137;56.482;9.154;2024-01-16T04:11:23;11.43;;;3.50;;
80584;SDS011;70137;56.482;9.154;2024-01-16T04:13:48;9.95;;;3.50;;
80584;SDS011;70137;56.482;9.154;2024-01-16T04:16:14;9.27;;;4.13;;
80584;SDS011;70137;56.482;9.154;2024-01-16T04:18:41;6.88;;;3.60;;
80584;SDS011;70137;56.482;9.154;2024-01-16T04:21:07;7.32;;;3.97;;
80584;SDS011;70137;56.482;9.154;2024-01-16T04:23:33;12.93;;;4.55;;
80584;SDS011;70137;56.482;9.154;2024-01-16T04:25:58;16.60;;;6.03;;
80584;SDS011;70137;56.482;9.154;2024-01-16T04:28:24;12.00;;;5.35;;
80584;SDS011;70137;56.482;9.154;2024-01-16T04:30:49;9.20;;;4.13;;
80584;SDS011;70137;56.482;9.154;2024-01-16T04:33:15;9.50;;;3.80;;
80584;SDS011;70137;56.482;9.154;2024-01-16T04:35:41;11.32;;;3.75;;
80584;SDS011;70137;56.482;9.154;2024-01-16T04:38:06;9.80;;;4.57;;
80584;SDS011;70137;56.482;9.154;2024-01-16T04:40:32;9.43;;;3.78;;
80584;SDS011;70137;56.482;9.154;2024-01-16T04:42:58;8.20;;;3.80;;
80584;SDS011;70137;56.482;9.154;2024-01-16T04:45:24;9.38;;;4.07;;
80584;SDS011;70137;56.482;9.154;2024-01-16T04:47:49;7.63;;;3.45;;
80584;SDS011;70137;56.482;9.154;2024-01-16T04:50:15;8.70;;;3.78;;
80584;SDS011;70137;56.482;9.154;2024-01-16T04:52:40;7.40;;;3.13;;
80584;SDS011;70137;56.482;9.154;2024-01-16T04:55:06;7.70;;;3.45;;
80584;SDS011;70137;56.482;9.154;2024-01-16T04:57:32;7.57;;;3.30;;
80584;SDS011;70137;56.482;9.154;2024-01-16T04:59:58;11.75;;;3.10;;
80584;SDS011;70137;56.482;9.154;2024-01-16T05:02:23;8.32;;;2.90;;
80584;SDS011;70137;56.482;9.154;2024-01-16T05:04:49;10.40;;;3.15;;
80584;SDS011;70137;56.482;9.154;2024-01-16T05:07:16;8.10;;;2.90;;
80584;SDS011;70137;56.482;9.154;2024-01-16T05:09:43;12.23;;;3.20;;
80584;SDS011;70137;56.482;9.154;2024-01-16T05:12:10;11.40;;;3.33;;
80584;SDS011;70137;56.482;9.154;2024-01-16T05:14:35;10.25;;;3.10;;
80584;SDS011;70137;56.482;9.154;2024-01-16T05:17:00;10.90;;;3.90;;
80584;SDS011;70137;56.482;9.154;2024-01-16T05:19:26;6.68;;;3.30;;
80584;SDS011;70137;56.482;9.154;2024-01-16T05:21:51;8.68;;;3.28;;
80584;SDS011;70137;56.482;9.154;2024-01-16T05:24:16;6.13;;;2.60;;
80584;SDS011;70137;56.482;9.154;2024-01-16T05:26:42;4.32;;;2.15;;
80584;SDS011;70137;56.482;9.154;2024-01-16T05:29:08;6.75;;;2.50;;
80584;SDS011;70137;56.482;9.154;2024-01-16T05:31:38;6.95;;;2.33;;
80584;SDS011;70137;56.482;9.154;2024-01-16T05:34:04;5.15;;;2.70;;
80584;SDS011;70137;56.482;9.154;2024-01-16T05:36:30;6.53;;;2.13;;
80584;SDS011;70137;56.482;9.154;2024-01-16T05:38:55;8.45;;;2.22;;
80584;SDS011;70137;56.482;9.154;2024-01-16T05:41:20;6.22;;;2.30;;
80584;SDS011;70137;56.482;9.154;2024-01-16T05:43:46;7.75;;;2.30;;
80584;SDS011;70137;56.482;9.154;2024-01-16T05:46:12;7.90;;;2.17;;
80584;SDS011;70137;56.482;9.154;2024-01-16T05:48:38;6.50;;;2.17;;
80584;SDS011;70137;56.482;9.154;2024-01-16T05:51:03;4.90;;;1.88;;
80584;SDS011;70137;56.482;9.154;2024-01-16T05:53:29;9.27;;;2.35;;
80584;SDS011;70137;56.482;9.154;2024-01-16T05:55:55;7.72;;;2.65;;
80584;SDS011;70137;56.482;9.154;2024-01-16T05:58:21;5.22;;;1.95;;
80584;SDS011;70137;56.482;9.154;2024-01-16T06:00:47;4.22;;;2.05;;
80584;SDS011;70137;56.482;9.154;2024-01-16T06:03:12;4.47;;;2.03;;
80584;SDS011;70137;56.482;9.154;2024-01-16T06:05:38;6.80;;;2.22;;
80584;SDS011;70137;56.482;9.154;2024-01-16T06:08:03;6.35;;;2.80;;
80584;SDS011;70137;56.482;9.154;2024-01-16T06:10:28;4.05;;;2.53;;
80584;SDS011;70137;56.482;9.154;2024-01-16T06:12:54;7.28;;;2.38;;
80584;SDS011;70137;56.482;9.154;2024-01-16T06:15:19;4.50;;;2.03;;
80584;SDS011;70137;56.482;9.154;2024-01-16T06:17:44;4.68;;;2.35;;
80584;SDS011;70137;56.482;9.154;2024-01-16T06:20:10;7.03;;;2.17;;
80584;SDS011;70137;56.482;9.154;2024-01-16T06:22:35;8.57;;;2.42;;
80584;SDS011;70137;56.482;9.154;2024-01-16T06:25:01;5.65;;;2.10;;
80584;SDS011;70137;56.482;9.154;2024-01-16T06:27:27;5.65;;;2.45;;
80584;SDS011;70137;56.482;9.154;2024-01-16T06:29:52;8.07;;;2.58;;
80584;SDS011;70137;56.482;9.154;2024-01-16T06:32:18;3.95;;;2.45;;
80584;SDS011;70137;56.482;9.154;2024-01-16T06:34:44;5.38;;;2.28;;
80584;SDS011;70137;56.482;9.154;2024-01-16T06:37:09;5.32;;;1.67;;
80584;SDS011;70137;56.482;9.154;2024-01-16T06:39:35;4.85;;;1.90;;
80584;SDS011;70137;56.482;9.154;2024-01-16T06:42:01;5.88;;;2.17;;
80584;SDS011;70137;56.482;9.154;2024-01-16T06:44:26;6.63;;;2.10;;
80584;SDS011;70137;56.482;9.154;2024-01-16T06:46:52;3.30;;;1.90;;
80584;SDS011;70137;56.482;9.154;2024-01-16T06:49:17;7.07;;;2.40;;
80584;SDS011;70137;56.482;9.154;2024-01-16T06:51:42;4.95;;;2.05;;
80584;SDS011;70137;56.482;9.154;2024-01-16T06:54:08;7.15;;;2.10;;
80584;SDS011;70137;56.482;9.154;2024-01-16T06:56:33;5.35;;;1.88;;
80584;SDS011;70137;56.482;9.154;2024-01-16T06:58:58;3.95;;;1.80;;
80584;SDS011;70137;56.482;9.154;2024-01-16T07:01:24;10.00;;;1.98;;
80584;SDS011;70137;56.482;9.154;2024-01-16T07:03:49;4.32;;;1.80;;
80584;SDS011;70137;56.482;9.154;2024-01-16T07:06:15;3.65;;;1.60;;
80584;SDS011;70137;56.482;9.154;2024-01-16T07:08:40;3.20;;;1.45;;
80584;SDS011;70137;56.482;9.154;2024-01-16T07:11:05;2.85;;;1.45;;
80584;SDS011;70137;56.482;9.154;2024-01-16T07:13:33;3.95;;;1.40;;
80584;SDS011;70137;56.482;9.154;2024-01-16T07:15:59;3.80;;;1.67;;
80584;SDS011;70137;56.482;9.154;2024-01-16T07:18:26;5.55;;;1.83;;
80584;SDS011;70137;56.482;9.154;2024-01-16T07:20:52;6.13;;;1.55;;
80584;SDS011;70137;56.482;9.154;2024-01-16T07:23:18;5.15;;;1.40;;
80584;SDS011;70137;56.482;9.154;2024-01-16T07:25:43;3.50;;;1.42;;
80584;SDS011;70137;56.482;9.154;2024-01-16T07:28:08;2.85;;;1.70;;
80584;SDS011;70137;56.482;9.154;2024-01-16T07:30:34;10.30;;;1.67;;
80584;SDS011;70137;56.482;9.154;2024-01-16T07:32:59;4.10;;;1.38;;
80584;SDS011;70137;56.482;9.154;2024-01-16T07:35:24;3.30;;;1.23;;
80584;SDS011;70137;56.482;9.154;2024-01-16T07:37:50;4.60;;;1.38;;
80584;SDS011;70137;56.482;9.154;2024-01-16T07:40:15;5.07;;;1.48;;
80584;SDS011;70137;56.482;9.154;2024-01-16T07:42:42;4.72;;;1.50;;
80584;SDS011;70137;56.482;9.154;2024-01-16T07:45:07;6.22;;;1.35;;
80584;SDS011;70137;56.482;9.154;2024-01-16T07:47:33;9.50;;;1.40;;
80584;SDS011;70137;56.482;9.154;2024-01-16T07:49:59;8.23;;;1.50;;
80584;SDS011;70137;56.482;9.154;2024-01-16T07:52:25;2.25;;;1.20;;
80584;SDS011;70137;56.482;9.154;2024-01-16T07:54:50;3.30;;;1.55;;
80584;SDS011;70137;56.482;9.154;2024-01-16T07:57:15;3.15;;;1.42;;
80584;SDS011;70137;56.482;9.154;2024-01-16T07:59:41;4.15;;;1.60;;
80584;SDS011;70137;56.482;9.154;2024-01-16T08:02:06;2.45;;;1.17;;
80584;SDS011;70137;56.482;9.154;2024-01-16T08:04:33;4.80;;;1.52;;
80584;SDS011;70137;56.482;9.154;2024-01-16T08:06:59;5.18;;;2.30;;
80584;SDS011;70137;56.482;9.154;2024-01-16T08:09:24;3.30;;;1.75;;
80584;SDS011;70137;56.482;9.154;2024-01-16T08:11:50;6.13;;;2.17;;
80584;SDS011;70137;56.482;9.154;2024-01-16T08:14:15;6.60;;;2.50;;
80584;SDS011;70137;56.482;9.154;2024-01-16T08:16:41;10.07;;;2.58;;
80584;SDS011;70137;56.482;9.154;2024-01-16T08:19:06;7.68;;;2.67;;
80584;SDS011;70137;56.482;9.154;2024-01-16T08:21:32;4.10;;;2.50;;
80584;SDS011;70137;56.482;9.154;2024-01-16T08:23:58;6.70;;;2.80;;
80584;SDS011;70137;56.482;9.154;2024-01-16T08:26:23;8.20;;;3.63;;
80584;SDS011;70137;56.482;9.154;2024-01-16T08:28:49;8.10;;;3.05;;
80584;SDS011;70137;56.482;9.154;2024-01-16T08:31:16;14.10;;;3.00;;
80584;SDS011;70137;56.482;9.154;2024-01-16T08:33:43;7.35;;;3.67;;
80584;SDS011;70137;56.482;9.154;2024-01-16T08:36:08;6.03;;;3.42;;
80584;SDS011;70137;56.482;9.154;2024-01-16T08:38:34;7.80;;;3.50;;
80584;SDS011;70137;56.482;9.154;2024-01-16T08:40:59;8.00;;;4.10;;
80584;SDS011;70137;56.482;9.154;2024-01-16T08:43:25;9.88;;;4.30;;
80584;SDS011;70137;56.482;9.154;2024-01-16T08:45:50;9.05;;;4.10;;
80584;SDS011;70137;56.482;9.154;2024-01-16T08:48:15;13.10;;;4.82;;
80584;SDS011;70137;56.482;9.154;2024-01-16T08:50:41;7.20;;;4.25;;
80584;SDS011;70137;56.482;9.154;2024-01-16T08:53:07;11.98;;;4.50;;
80584;SDS011;70137;56.482;9.154;2024-01-16T08:55:32;11.93;;;4.20;;
80584;SDS011;70137;56.482;9.154;2024-01-16T08:57:58;8.70;;;4.13;;
80584;SDS011;70137;56.482;9.154;2024-01-16T09:00:24;9.43;;;4.38;;
80584;SDS011;70137;56.482;9.154;2024-01-16T09:02:49;9.68;;;4.25;;
80584;SDS011;70137;56.482;9.154;2024-01-16T09:05:15;13.55;;;5.43;;
80584;SDS011;70137;56.482;9.154;2024-01-16T09:07:41;13.85;;;4.82;;
80584;SDS011;70137;56.482;9.154;2024-01-16T09:10:06;12.13;;;4.72;;
80584;SDS011;70137;56.482;9.154;2024-01-16T09:12:32;10.73;;;5.10;;
80584;SDS011;70137;56.482;9.154;2024-01-16T09:14:58;10.23;;;4.38;;
80584;SDS011;70137;56.482;9.154;2024-01-16T09:17:24;14.65;;;4.72;;
80584;SDS011;70137;56.482;9.154;2024-01-16T09:19:51;8.63;;;4.05;;
80584;SDS011;70137;56.482;9.154;2024-01-16T09:22:16;7.63;;;3.90;;
80584;SDS011;70137;56.482;9.154;2024-01-16T09:24:43;11.68;;;5.03;;
80584;SDS011;70137;56.482;9.154;2024-01-16T09:27:08;8.63;;;3.67;;
80584;SDS011;70137;56.482;9.154;2024-01-16T09:29:35;12.93;;;4.50;;
80584;SDS011;70137;56.482;9.154;2024-01-16T09:32:01;8.32;;;4.47;;
80584;SDS011;70137;56.482;9.154;2024-01-16T09:34:26;9.30;;;4.55;;
80584;SDS011;70137;56.482;9.154;2024-01-16T09:36:52;7.85;;;4.25;;
80584;SDS011;70137;56.482;9.154;2024-01-16T09:39:18;11.98;;;3.72;;
80584;SDS011;70137;56.482;9.154;2024-01-16T09:41:44;10.15;;;4.47;;
80584;SDS011;70137;56.482;9.154;2024-01-16T09:44:10;12.18;;;4.70;;
80584;SDS011;70137;56.482;9.154;2024-01-16T09:46:37;9.52;;;4.75;;
80584;SDS011;70137;56.482;9.154;2024-01-16T09:49:03;9.20;;;4.70;;
80584;SDS011;70137;56.482;9.154;2024-01-16T09:51:29;10.52;;;4.30;;
80584;SDS011;70137;56.482;9.154;2024-01-16T09:53:55;8.98;;;4.32;;
80584;SDS011;70137;56.482;9.154;2024-01-16T09:56:21;13.10;;;5.40;;
80584;SDS011;70137;56.482;9.154;2024-01-16T09:58:49;8.55;;;4.60;;
80584;SDS011;70137;56.482;9.154;2024-01-16T10:01:16;10.10;;;4.70;;
80584;SDS011;70137;56.482;9.154;2024-01-16T10:03:45;10.57;;;4.63;;
80584;SDS011;70137;56.482;9.154;2024-01-16T10:06:11;8.25;;;4.15;;
80584;SDS011;70137;56.482;9.154;2024-01-16T10:08:38;9.38;;;4.28;;
80584;SDS011;70137;56.482;9.154;2024-01-16T10:11:04;12.13;;;5.45;;
80584;SDS011;70137;56.482;9.154;2024-01-16T10:13:30;13.57;;;4.50;;
80584;SDS011;70137;56.482;9.154;2024-01-16T10:15:57;20.23;;;4.43;;
80584;SDS011;70137;56.482;9.154;2024-01-16T10:20:50;10.15;;;4.55;;
80584;SDS011;70137;56.482;9.154;2024-01-16T10:23:24;11.20;;;3.83;;
80584;SDS011;70137;56.482;9.154;2024-01-16T10:26:06;10.60;;;4.38;;
80584;SDS011;70137;56.482;9.154;2024-01-16T10:28:32;11.45;;;3.72;;
80584;SDS011;70137;56.482;9.154;2024-01-16T10:31:02;14.60;;;3.85;;
80584;SDS011;70137;56.482;9.154;2024-01-16T10:33:31;20.05;;;4.20;;
80584;SDS011;70137;56.482;9.154;2024-01-16T10:38:40;10.98;;;3.83;;
80584;SDS011;70137;56.482;9.154;2024-01-16T10:41:09;10.13;;;3.78;;
80584;SDS011;70137;56.482;9.154;2024-01-16T10:43:39;8.52;;;4.25;;
80584;SDS011;70137;56.482;9.154;2024-01-16T10:46:11;9.00;;;3.92;;
80584;SDS011;70137;56.482;9.154;2024-01-16T10:48:38;8.50;;;3.63;;
80584;SDS011;70137;56.482;9.154;2024-01-16T10:51:09;9.95;;;4.32;;
80584;SDS011;70137;56.482;9.154;2024-01-16T10:53:37;10.05;;;4.68;;
80584;SDS011;70137;56.482;9.154;2024-01-16T10:56:06;11.20;;;4.25;;
80584;SDS011;70137;56.482;9.154;2024-01-16T10:58:36;6.93;;;3.70;;
80584;SDS011;70137;56.482;9.154;2024-01-16T11:01:05;10.45;;;4.35;;
80584;SDS011;70137;56.482;9.154;2024-01-16T11:03:41;11.00;;;4.30;;
80584;SDS011;70137;56.482;9.154;2024-01-16T11:06:12;7.55;;;4.07;;
80584;SDS011;70137;56.482;9.154;2024-01-16T11:08:40;17.50;;;4.78;;
80584;SDS011;70137;56.482;9.154;2024-01-16T11:11:06;9.20;;;3.90;;
80584;SDS011;70137;56.482;9.154;2024-01-16T11:13:34;8.20;;;3.72;;
80584;SDS011;70137;56.482;9.154;2024-01-16T11:16:00;9.88;;;3.78;;
80584;SDS011;70137;56.482;9.154;2024-01-16T11:18:28;9.80;;;4.40;;
80584;SDS011;70137;56.482;9.154;2024-01-16T11:20:56;7.80;;;4.05;;
80584;SDS011;70137;56.482;9.154;2024-01-16T11:23:23;9.13;;;3.28;;
80584;SDS011;70137;56.482;9.154;2024-01-16T11:25:48;10.48;;;4.57;;
80584;SDS011;70137;56.482;9.154;2024-01-16T11:28:14;10.05;;;4.43;;
80584;SDS011;70137;56.482;9.154;2024-01-16T11:30:41;8.32;;;4.07;;
80584;SDS011;70137;56.482;9.154;2024-01-16T11:35:59;12.75;;;4.13;;
80584;SDS011;70137;56.482;9.154;2024-01-16T11:38:25;10.20;;;3.97;;
80584;SDS011;70137;56.482;9.154;2024-01-16T11:40:54;9.35;;;3.97;;
80584;SDS011;70137;56.482;9.154;2024-01-16T11:46:02;9.05;;;3.65;;
80584;SDS011;70137;56.482;9.154;2024-01-16T11:48:29;8.45;;;3.70;;
80584;SDS011;70137;56.482;9.154;2024-01-16T11:50:54;7.78;;;3.58;;
80584;SDS011;70137;56.482;9.154;2024-01-16T11:58:48;11.07;;;3.80;;
80584;SDS011;70137;56.482;9.154;2024-01-16T12:01:16;7.47;;;3.53;;
80584;SDS011;70137;56.482;9.154;2024-01-16T12:03:44;6.35;;;3.58;;
80584;SDS011;70137;56.482;9.154;2024-01-16T12:06:10;6.75;;;3.03;;
80584;SDS011;70137;56.482;9.154;2024-01-16T12:08:36;7.72;;;4.10;;
80584;SDS011;70137;56.482;9.154;2024-01-16T12:11:04;9.60;;;2.75;;
80584;SDS011;70137;56.482;9.154;2024-01-16T12:13:29;9.57;;;4.20;;
80584;SDS011;70137;56.482;9.154;2024-01-16T12:16:02;13.80;;;3.50;;
80584;SDS011;70137;56.482;9.154;2024-01-16T12:18:31;7.47;;;3.47;;
80584;SDS011;70137;56.482;9.154;2024-01-16T12:20:56;5.30;;;3.22;;
80584;SDS011;70137;56.482;9.154;2024-01-16T12:23:23;5.50;;;3.13;;
80584;SDS011;70137;56.482;9.154;2024-01-16T12:25:52;6.88;;;2.90;;
80584;SDS011;70137;56.482;9.154;2024-01-16T12:28:24;4.07;;;1.98;;
80584;SDS011;70137;56.482;9.154;2024-01-16T12:30:50;3.55;;;2.45;;
80584;SDS011;70137;56.482;9.154;2024-01-16T12:33:21;4.43;;;2.35;;
80584;SDS011;70137;56.482;9.154;2024-01-16T12:35:47;5.30;;;2.30;;
80584;SDS011;70137;56.482;9.154;2024-01-16T12:38:13;5.18;;;2.40;;
80584;SDS011;70137;56.482;9.154;2024-01-16T12:40:41;4.78;;;2.55;;
80584;SDS011;70137;56.482;9.154;2024-01-16T12:43:11;6.25;;;2.78;;
80584;SDS011;70137;56.482;9.154;2024-01-16T12:45:36;5.55;;;2.90;;
80584;SDS011;70137;56.482;9.154;2024-01-16T12:48:02;5.43;;;2.88;;
80584;SDS011;70137;56.482;9.154;2024-01-16T12:50:28;4.07;;;2.65;;
80584;SDS011;70137;56.482;9.154;2024-01-16T12:55:29;7.05;;;3.20;;
80584;SDS011;70137;56.482;9.154;2024-01-16T12:58:14;12.85;;;3.10;;
80584;SDS011;70137;56.482;9.154;2024-01-16T13:00:48;5.45;;;2.80;;
80584;SDS011;70137;56.482;9.154;2024-01-16T13:03:18;7.40;;;2.67;;
80584;SDS011;70137;56.482;9.154;2024-01-16T13:05:55;7.13;;;3.30;;
80584;SDS011;70137;56.482;9.154;2024-01-16T13:08:25;12.10;;;3.78;;
80584;SDS011;70137;56.482;9.154;2024-01-16T13:11:03;7.13;;;2.88;;
80584;SDS011;70137;56.482;9.154;2024-01-16T13:13:29;5.50;;;2.50;;
80584;SDS011;70137;56.482;9.154;2024-01-16T13:15:55;6.35;;;3.08;;
80584;SDS011;70137;56.482;9.154;2024-01-16T13:18:23;7.45;;;3.38;;
80584;SDS011;70137;56.482;9.154;2024-01-16T13:20:53;6.90;;;3.42;;
80584;SDS011;70137;56.482;9.154;2024-01-16T13:23:20;6.10;;;3.03;;
80584;SDS011;70137;56.482;9.154;2024-01-16T13:25:47;10.93;;;2.97;;
80584;SDS011;70137;56.482;9.154;2024-01-16T13:28:17;8.30;;;3.45;;
80584;SDS011;70137;56.482;9.154;2024-01-16T13:30:45;8.60;;;2.83;;
80584;SDS011;70137;56.482;9.154;2024-01-16T13:33:11;7.40;;;3.38;;
80584;SDS011;70137;56.482;9.154;2024-01-16T13:35:40;6.55;;;3.28;;
80584;SDS011;70137;56.482;9.154;2024-01-16T13:38:07;9.40;;;3.63;;
80584;SDS011;70137;56.482;9.154;2024-01-16T13:40:33;8.63;;;2.90;;
80584;SDS011;70137;56.482;9.154;2024-01-16T13:43:00;4.90;;;2.80;;
80584;SDS011;70137;56.482;9.154;2024-01-16T13:45:26;5.63;;;2.80;;
80584;SDS011;70137;56.482;9.154;2024-01-16T13:47:53;10.52;;;2.72;;
80584;SDS011;70137;56.482;9.154;2024-01-16T13:50:19;6.15;;;2.80;;
80584;SDS011;70137;56.482;9.154;2024-01-16T13:52:44;7.28;;;2.90;;
80584;SDS011;70137;56.482;9.154;2024-01-16T13:55:10;6.13;;;1.95;;
80584;SDS011;70137;56.482;9.154;2024-01-16T13:57:36;4.70;;;2.95;;
80584;SDS011;70137;56.482;9.154;2024-01-16T14:00:05;8.15;;;2.13;;
80584;SDS011;70137;56.482;9.154;2024-01-16T14:02:32;6.95;;;2.33;;
80584;SDS011;70137;56.482;9.154;2024-01-16T14:05:02;5.95;;;2.30;;
80584;SDS011;70137;56.482;9.154;2024-01-16T14:07:27;5.47;;;2.53;;
80584;SDS011;70137;56.482;9.154;2024-01-16T14:09:53;6.78;;;2.83;;
80584;SDS011;70137;56.482;9.154;2024-01-16T14:12:18;6.45;;;2.40;;
80584;SDS011;70137;56.482;9.154;2024-01-16T14:14:44;5.50;;;2.53;;
80584;SDS011;70137;56.482;9.154;2024-01-16T14:17:10;9.50;;;3.10;;
80584;SDS011;70137;56.482;9.154;2024-01-16T14:19:36;5.70;;;2.53;;
80584;SDS011;70137;56.482;9.154;2024-01-16T14:22:03;3.50;;;2.15;;
80584;SDS011;70137;56.482;9.154;2024-01-16T14:24:29;5.13;;;3.35;;
80584;SDS011;70137;56.482;9.154;2024-01-16T14:26:54;4.78;;;2.47;;
80584;SDS011;70137;56.482;9.154;2024-01-16T14:29:21;3.92;;;1.98;;
80584;SDS011;70137;56.482;9.154;2024-01-16T14:31:48;4.10;;;2.60;;
80584;SDS011;70137;56.482;9.154;2024-01-16T14:34:13;4.95;;;2.65;;
80584;SDS011;70137;56.482;9.154;2024-01-16T14:36:40;6.13;;;2.03;;
80584;SDS011;70137;56.482;9.154;2024-01-16T14:39:06;4.35;;;2.13;;
80584;SDS011;70137;56.482;9.154;2024-01-16T14:41:32;7.82;;;3.42;;
80584;SDS011;70137;56.482;9.154;2024-01-16T14:43:57;7.47;;;2.33;;
80584;SDS011;70137;56.482;9.154;2024-01-16T14:46:23;5.70;;;2.03;;
80584;SDS011;70137;56.482;9.154;2024-01-16T14:48:49;5.28;;;3.08;;
80584;SDS011;70137;56.482;9.154;2024-01-16T14:51:15;7.32;;;2.78;;
80584;SDS011;70137;56.482;9.154;2024-01-16T14:53:40;5.97;;;2.38;;
80584;SDS011;70137;56.482;9.154;2024-01-16T14:56:05;4.70;;;2.42;;
80584;SDS011;70137;56.482;9.154;2024-01-16T14:58:31;7.95;;;2.95;;